createdAt,value
2022-10-20T00:01:16.217Z,10.27
2022-10-20T00:06:19.011Z,10.35
2022-10-20T00:11:21.712Z,10.54
2022-10-20T00:16:27.684Z,10.56
2022-10-20T00:21:30.697Z,10.64
2022-10-20T00:26:33.384Z,10.64
2022-10-20T00:31:36.317Z,10.73
2022-10-20T00:36:39.068Z,10.73
2022-10-20T00:41:42.230Z,10.62
2022-10-20T00:46:45.398Z,10.62
2022-10-20T00:51:48.126Z,10.55
2022-10-20T00:56:51.200Z,10.44
2022-10-20T01:01:55.113Z,10.46
2022-10-20T01:06:58.042Z,10.31
2022-10-20T01:12:00.904Z,10.24
2022-10-20T01:17:04.381Z,10.26
2022-10-20T01:22:07.101Z,10.27
2022-10-20T01:27:09.905Z,10.30
2022-10-20T01:32:12.598Z,10.27
2022-10-20T01:37:28.237Z,10.26
2022-10-20T01:42:38.298Z,10.24
2022-10-20T01:47:41.365Z,10.21
2022-10-20T01:52:44.205Z,10.18
2022-10-20T01:57:47.180Z,10.18
2022-10-20T02:02:50.018Z,10.13
2022-10-20T02:07:57.768Z,10.11
2022-10-20T02:13:00.763Z,10.12
2022-10-20T02:18:03.888Z,10.02
2022-10-20T02:23:06.842Z,10.14
2022-10-20T02:28:10.163Z,10.09
2022-10-20T02:33:12.943Z,10.05
2022-10-20T02:38:16.192Z,9.96
2022-10-20T02:43:19.092Z,10.00
2022-10-20T02:48:22.288Z,9.94
2022-10-20T02:53:25.086Z,9.86
2022-10-20T02:58:27.921Z,9.86
2022-10-20T03:03:30.710Z,9.82
2022-10-20T03:08:33.535Z,9.86
2022-10-20T03:13:36.464Z,9.85
2022-10-20T03:18:39.238Z,9.84
2022-10-20T03:23:41.941Z,9.71
2022-10-20T03:28:44.702Z,9.65
2022-10-20T03:33:47.805Z,9.72
2022-10-20T03:38:50.501Z,9.61
2022-10-20T03:43:53.204Z,9.61
2022-10-20T03:48:56.027Z,9.51
2022-10-20T03:53:58.855Z,9.50
2022-10-20T03:59:01.713Z,9.36
2022-10-20T04:04:04.590Z,9.36
2022-10-20T04:09:07.644Z,9.36
2022-10-20T04:14:11.017Z,9.36
2022-10-20T04:19:13.890Z,9.29
2022-10-20T04:24:16.769Z,9.25
2022-10-20T04:29:19.586Z,9.37
2022-10-20T04:34:22.744Z,9.28
2022-10-20T04:39:25.866Z,9.11
2022-10-20T04:44:28.766Z,9.15
2022-10-20T04:49:31.657Z,9.08
2022-10-20T04:54:34.632Z,9.16
2022-10-20T04:59:37.488Z,9.21
2022-10-20T05:04:40.171Z,9.34
2022-10-20T05:09:42.956Z,9.35
2022-10-20T05:14:45.753Z,9.29
2022-10-20T05:19:48.459Z,9.19
2022-10-20T05:24:51.157Z,9.13
2022-10-20T05:29:53.859Z,9.39
2022-10-20T05:34:56.570Z,9.27
2022-10-20T05:39:59.850Z,9.27
2022-10-20T05:45:02.834Z,9.24
2022-10-20T05:50:05.709Z,9.32
2022-10-20T05:55:12.809Z,9.34
2022-10-20T06:00:16.161Z,9.20
2022-10-20T06:05:19.237Z,9.26
2022-10-20T06:10:22.166Z,9.39
2022-10-20T06:15:25.035Z,9.39
2022-10-20T06:20:28.491Z,9.21
2022-10-20T06:25:31.352Z,9.28
2022-10-20T06:30:34.249Z,9.16
2022-10-20T06:35:37.085Z,9.14
2022-10-20T06:40:41.883Z,9.13
2022-10-20T06:45:44.734Z,9.00
2022-10-20T06:50:47.602Z,9.15
2022-10-20T06:55:50.469Z,9.28
2022-10-20T07:00:53.257Z,9.42
2022-10-20T07:05:56.025Z,9.67
2022-10-20T07:10:58.810Z,9.73
2022-10-20T07:16:01.709Z,9.85
2022-10-20T07:21:04.419Z,9.75
2022-10-20T07:26:07.127Z,9.71
2022-10-20T07:31:09.812Z,9.86
2022-10-20T07:36:14.741Z,10.04
2022-10-20T07:41:17.490Z,10.07
2022-10-20T07:46:20.163Z,10.08
2022-10-20T07:51:24.805Z,10.24
2022-10-20T07:56:27.541Z,10.34
2022-10-20T08:01:30.302Z,10.19
2022-10-20T08:06:33.006Z,9.91
2022-10-20T08:11:36.070Z,10.03
2022-10-20T08:16:46.384Z,10.42
2022-10-20T08:21:49.197Z,10.28
2022-10-20T08:26:52.196Z,10.27
2022-10-20T08:31:54.976Z,10.39
2022-10-20T08:36:57.772Z,9.74
2022-10-20T08:42:08.557Z,10.03
2022-10-20T08:47:12.000Z,10.60
2022-10-20T08:52:15.443Z,10.43
2022-10-20T08:57:18.152Z,9.90
2022-10-20T09:02:20.845Z,10.35
2022-10-20T09:07:23.557Z,10.75
2022-10-20T09:12:31.012Z,10.74
2022-10-20T09:17:34.248Z,10.73
2022-10-20T09:22:37.123Z,10.53
2022-10-20T09:27:43.041Z,10.31
2022-10-20T09:32:47.338Z,10.77
2022-10-20T09:37:50.184Z,10.44
2022-10-20T09:42:52.846Z,10.67
2022-10-20T09:47:56.167Z,10.83
2022-10-20T09:52:58.877Z,11.01
2022-10-20T09:58:01.650Z,11.05
2022-10-20T10:03:04.504Z,11.19
2022-10-20T10:08:07.651Z,11.20
2022-10-20T10:13:10.818Z,11.77
2022-10-20T10:18:14.065Z,11.87
2022-10-20T10:23:17.375Z,12.49
2022-10-20T10:28:20.256Z,12.40
2022-10-20T10:33:23.229Z,12.80
2022-10-20T10:38:25.996Z,13.35
2022-10-20T10:43:30.671Z,13.93
2022-10-20T10:48:33.716Z,14.51
2022-10-20T10:53:36.652Z,14.83
2022-10-20T10:58:39.529Z,14.26
2022-10-20T11:03:42.490Z,14.13
2022-10-20T11:08:45.260Z,14.11
2022-10-20T11:13:48.427Z,14.36
2022-10-20T11:18:51.293Z,14.54
2022-10-20T11:23:53.965Z,14.38
2022-10-20T11:28:57.363Z,14.60
2022-10-20T11:34:00.302Z,15.10
2022-10-20T11:39:04.222Z,15.01
2022-10-20T11:44:07.132Z,15.47
2022-10-20T11:49:12.318Z,15.80
2022-10-20T11:54:15.339Z,16.19
2022-10-20T11:59:18.153Z,16.07
2022-10-20T12:04:21.017Z,16.13
2022-10-20T12:09:23.990Z,16.21
2022-10-20T12:14:27.093Z,16.07
2022-10-20T12:19:30.065Z,16.17
2022-10-20T12:24:33.389Z,16.53
2022-10-20T12:29:36.360Z,16.55
2022-10-20T12:34:39.193Z,16.17
2022-10-20T12:39:42.523Z,15.99
2022-10-20T12:44:46.768Z,16.04
2022-10-20T12:49:49.570Z,16.07
2022-10-20T12:54:54.790Z,16.20
2022-10-20T12:59:57.502Z,16.37
2022-10-20T13:05:00.236Z,15.68
2022-10-20T13:10:04.402Z,15.61
2022-10-20T13:15:07.241Z,15.91
2022-10-20T13:20:09.929Z,15.77
2022-10-20T13:25:13.098Z,15.74
2022-10-20T13:30:15.929Z,15.83
2022-10-20T13:35:18.631Z,15.80
2022-10-20T13:40:23.763Z,15.94
2022-10-20T13:45:27.059Z,16.14
2022-10-20T13:50:29.760Z,15.83
2022-10-20T13:55:32.518Z,16.05
2022-10-20T14:00:36.203Z,16.04
2022-10-20T14:05:38.938Z,15.77
2022-10-20T14:10:41.905Z,16.13
2022-10-20T14:15:44.593Z,16.06
2022-10-20T14:20:47.342Z,16.00
2022-10-20T14:25:50.065Z,16.08
2022-10-20T14:30:52.842Z,15.95
2022-10-20T14:35:55.898Z,15.57
2022-10-20T14:40:58.600Z,15.35
2022-10-20T14:46:01.682Z,15.35
2022-10-20T14:51:04.373Z,15.10
2022-10-20T14:56:07.031Z,14.62
2022-10-20T15:01:09.853Z,14.69
2022-10-20T15:06:15.223Z,14.75
2022-10-20T15:11:20.712Z,14.64
2022-10-20T15:16:23.502Z,14.80
2022-10-20T15:21:26.573Z,14.65
2022-10-20T15:26:30.001Z,14.47
2022-10-20T15:31:32.795Z,14.22
2022-10-20T15:36:41.819Z,13.99
2022-10-20T15:41:47.078Z,13.83
2022-10-20T15:46:53.251Z,13.60
2022-10-20T15:51:56.086Z,13.58
2022-10-20T15:56:58.875Z,13.37
2022-10-20T16:02:01.721Z,13.21
2022-10-20T16:07:04.553Z,13.14
2022-10-20T16:12:07.354Z,13.07
2022-10-20T16:17:10.175Z,13.04
2022-10-20T16:22:12.978Z,12.99
2022-10-20T16:27:15.786Z,12.97
2022-10-20T16:32:18.625Z,12.91
2022-10-20T16:37:21.454Z,12.86
2022-10-20T16:42:24.292Z,12.73
2022-10-20T16:47:27.130Z,12.74
2022-10-20T16:52:29.961Z,12.61
2022-10-20T16:57:38.650Z,12.61
2022-10-20T17:02:43.130Z,12.56
2022-10-20T17:07:46.018Z,12.55
2022-10-20T17:17:56.679Z,12.53
2022-10-20T17:22:59.478Z,12.49
2022-10-20T17:28:02.277Z,12.47
2022-10-20T17:33:05.106Z,12.52
2022-10-20T17:38:07.907Z,12.49
2022-10-20T17:43:10.722Z,12.60
2022-10-20T17:48:13.518Z,12.48
2022-10-20T17:53:16.197Z,12.39
2022-10-20T17:58:19.064Z,12.27
2022-10-20T18:03:22.267Z,12.29
2022-10-20T18:08:24.965Z,12.14
2022-10-20T18:13:27.651Z,12.09
2022-10-20T18:18:30.937Z,12.10
2022-10-20T18:23:34.189Z,12.00
2022-10-20T18:28:39.564Z,11.95
2022-10-20T18:33:43.992Z,11.93
2022-10-20T18:38:46.825Z,11.89
2022-10-20T18:43:51.646Z,11.99
2022-10-20T18:48:57.709Z,11.83
2022-10-20T18:54:00.786Z,11.93
2022-10-20T18:59:03.551Z,11.89
2022-10-20T19:04:06.436Z,11.88
2022-10-20T19:09:09.287Z,11.70
2022-10-20T19:14:12.038Z,11.67
2022-10-20T19:19:14.725Z,11.66
2022-10-20T19:24:17.595Z,11.54
2022-10-20T19:29:20.393Z,11.54
2022-10-20T19:34:23.267Z,11.58
2022-10-20T19:39:27.484Z,11.36
2022-10-20T19:44:30.552Z,11.33
2022-10-20T19:49:33.326Z,11.28
2022-10-20T19:54:36.585Z,11.19
2022-10-20T19:59:39.433Z,11.30
2022-10-20T20:04:42.831Z,11.36
2022-10-20T20:09:48.245Z,11.29
2022-10-20T20:14:54.050Z,11.30
2022-10-20T20:19:58.177Z,11.27
2022-10-20T20:25:01.241Z,11.24
2022-10-20T20:30:04.655Z,11.18
2022-10-20T20:35:07.814Z,11.13
2022-10-20T20:40:10.847Z,11.20
2022-10-20T20:45:14.157Z,11.14
2022-10-20T20:50:17.315Z,11.07
2022-10-20T20:55:20.557Z,11.01
2022-10-20T21:00:24.393Z,10.89
2022-10-20T21:05:28.109Z,10.90
2022-10-20T21:10:31.779Z,10.77
2022-10-20T21:15:34.945Z,10.73
2022-10-20T21:20:38.144Z,10.68
2022-10-20T21:25:41.248Z,10.61
2022-10-20T21:30:44.308Z,10.59
2022-10-20T21:35:47.405Z,10.59
2022-10-20T21:40:50.570Z,10.72
2022-10-20T21:45:54.122Z,10.86
2022-10-20T21:50:57.087Z,10.96
2022-10-20T21:55:59.864Z,10.95
2022-10-20T22:01:02.797Z,10.96
2022-10-20T22:06:05.906Z,11.07
2022-10-20T22:11:08.749Z,11.07
2022-10-20T22:16:11.611Z,11.09
2022-10-20T22:21:17.752Z,11.13
2022-10-20T22:26:20.615Z,11.07
2022-10-20T22:31:23.698Z,11.07
2022-10-20T22:36:26.704Z,11.07
2022-10-20T22:41:29.615Z,10.98
2022-10-20T22:46:32.538Z,11.02
2022-10-20T22:51:35.535Z,11.12
2022-10-20T22:56:38.546Z,11.22
2022-10-20T23:01:41.754Z,11.22
2022-10-20T23:06:54.944Z,11.34
2022-10-20T23:11:58.154Z,11.30
2022-10-20T23:17:01.366Z,11.36
2022-10-20T23:22:04.526Z,11.40
2022-10-20T23:27:07.383Z,11.39
2022-10-20T23:32:10.263Z,11.44
2022-10-20T23:37:14.291Z,11.50
2022-10-20T23:42:17.586Z,11.56
2022-10-20T23:47:20.916Z,11.55
2022-10-20T23:52:23.811Z,11.74
2022-10-20T23:57:26.824Z,11.77
